createdAt,value
2022-08-28T00:02:12.832Z,17.10
2022-08-28T00:04:41.196Z,12.10
2022-08-28T00:07:09.923Z,11.20
2022-08-28T00:09:38.627Z,11.40
2022-08-28T00:12:07.580Z,8.60
2022-08-28T00:14:36.283Z,10.40
2022-08-28T00:17:04.675Z,12.50
2022-08-28T00:19:37.929Z,11.30
2022-08-28T00:22:08.018Z,9.60
2022-08-28T00:24:37.348Z,14.30
2022-08-28T00:27:24.067Z,11.60
2022-08-28T00:29:52.203Z,11.50
2022-08-28T00:32:24.065Z,20.90
2022-08-28T00:34:53.237Z,16.10
2022-08-28T00:37:24.603Z,15.30
2022-08-28T00:39:52.918Z,14.40
2022-08-28T00:42:21.263Z,13.50
2022-08-28T00:44:49.320Z,14.80
2022-08-28T00:47:17.407Z,13.90
2022-08-28T00:49:53.617Z,17.60
2022-08-28T00:52:24.956Z,12.40
2022-08-28T00:54:59.140Z,16.90
2022-08-28T00:57:35.415Z,19.40
2022-08-28T01:00:11.722Z,18.30
2022-08-28T01:02:40.132Z,23.60
2022-08-28T01:05:10.153Z,22.00
2022-08-28T01:07:39.440Z,15.80
2022-08-28T01:10:11.745Z,12.40
2022-08-28T01:12:39.859Z,14.60
2022-08-28T01:15:14.072Z,14.10
2022-08-28T01:17:47.094Z,15.60
2022-08-28T01:20:19.767Z,14.70
2022-08-28T01:23:04.151Z,18.20
2022-08-28T01:25:34.670Z,15.50
2022-08-28T01:28:06.046Z,19.50
2022-08-28T01:30:35.187Z,14.60
2022-08-28T01:33:03.704Z,13.20
2022-08-28T01:35:38.651Z,16.90
2022-08-28T01:38:06.821Z,15.40
2022-08-28T01:40:41.162Z,11.90
2022-08-28T01:43:21.308Z,14.70
2022-08-28T01:45:53.473Z,10.60
2022-08-28T01:48:24.638Z,17.20
2022-08-28T01:50:53.166Z,14.00
2022-08-28T01:53:24.978Z,13.30
2022-08-28T01:55:55.342Z,19.10
2022-08-28T01:58:25.215Z,19.20
2022-08-28T02:00:56.088Z,16.40
2022-08-28T02:03:24.540Z,19.50
2022-08-28T02:05:52.562Z,16.60
2022-08-28T02:08:21.431Z,11.40
2022-08-28T02:10:49.897Z,14.90
2022-08-28T02:13:17.842Z,12.90
2022-08-28T02:15:46.610Z,12.30
2022-08-28T02:18:15.077Z,17.70
2022-08-28T02:20:43.570Z,20.10
2022-08-28T02:23:11.887Z,13.40
2022-08-28T02:25:40.179Z,16.50
2022-08-28T02:28:08.408Z,17.90
2022-08-28T02:30:37.084Z,11.70
2022-08-28T02:33:05.503Z,15.10
2022-08-28T02:35:33.704Z,14.90
2022-08-28T02:38:02.216Z,23.90
2022-08-28T02:40:30.569Z,23.10
2022-08-28T02:42:58.792Z,13.50
2022-08-28T02:45:26.807Z,14.30
2022-08-28T02:47:55.349Z,21.50
2022-08-28T02:50:24.508Z,18.70
2022-08-28T02:52:53.148Z,17.10
2022-08-28T02:55:22.366Z,23.90
2022-08-28T02:57:50.393Z,23.20
2022-08-28T03:00:23.153Z,27.30
2022-08-28T03:02:52.791Z,22.70
2022-08-28T03:05:26.064Z,24.70
2022-08-28T03:07:54.633Z,25.10
2022-08-28T03:10:23.306Z,27.40
2022-08-28T03:12:52.297Z,24.60
2022-08-28T03:15:20.671Z,19.20
2022-08-28T03:17:49.081Z,17.30
2022-08-28T03:20:19.766Z,17.20
2022-08-28T03:23:06.815Z,17.10
2022-08-28T03:25:35.223Z,24.10
2022-08-28T03:28:03.333Z,19.40
2022-08-28T03:30:31.361Z,12.50
2022-08-28T03:32:59.559Z,17.80
2022-08-28T03:35:27.656Z,14.80
2022-08-28T03:37:55.625Z,12.80
2022-08-28T03:40:23.621Z,16.30
2022-08-28T03:42:53.473Z,15.60
2022-08-28T03:45:22.666Z,14.70
2022-08-28T03:47:51.626Z,14.00
2022-08-28T03:50:19.890Z,11.20
2022-08-28T03:52:48.191Z,20.70
2022-08-28T03:55:19.277Z,18.50
2022-08-28T03:57:47.401Z,22.90
2022-08-28T04:00:16.430Z,12.20
2022-08-28T04:02:46.551Z,19.40
2022-08-28T04:05:14.876Z,17.30
2022-08-28T04:07:42.802Z,17.20
2022-08-28T04:10:12.667Z,17.80
2022-08-28T04:12:40.650Z,13.90
2022-08-28T04:15:09.551Z,17.20
2022-08-28T04:17:41.845Z,22.10
2022-08-28T04:20:11.521Z,14.30
2022-08-28T04:22:39.867Z,13.90
2022-08-28T04:25:08.624Z,14.10
2022-08-28T04:27:36.923Z,10.90
2022-08-28T04:30:06.206Z,12.60
2022-08-28T04:32:36.025Z,11.90
2022-08-28T04:35:07.019Z,14.70
2022-08-28T04:37:35.069Z,14.30
2022-08-28T04:40:06.412Z,15.20
2022-08-28T04:42:34.681Z,16.80
2022-08-28T04:45:03.137Z,13.50
2022-08-28T04:47:31.513Z,10.30
2022-08-28T04:49:59.592Z,13.30
2022-08-28T04:52:28.075Z,16.30
2022-08-28T04:54:56.564Z,14.70
2022-08-28T04:57:25.168Z,11.10
2022-08-28T04:59:53.233Z,18.50
2022-08-28T05:02:21.230Z,13.60
2022-08-28T05:04:49.443Z,17.80
2022-08-28T05:07:17.593Z,13.50
2022-08-28T05:09:46.037Z,12.00
2022-08-28T05:12:17.721Z,20.00
2022-08-28T05:17:17.409Z,12.10
2022-08-28T05:19:45.509Z,14.20
2022-08-28T05:22:13.461Z,13.70
2022-08-28T05:24:41.377Z,15.30
2022-08-28T05:27:09.687Z,17.00
2022-08-28T05:29:37.880Z,23.10
2022-08-28T05:32:06.016Z,16.20
2022-08-28T05:34:34.212Z,21.80
2022-08-28T05:37:02.796Z,23.80
2022-08-28T05:39:30.784Z,15.00
2022-08-28T05:41:58.808Z,13.60
2022-08-28T05:44:26.936Z,12.90
2022-08-28T05:46:54.886Z,12.00
2022-08-28T05:49:23.088Z,17.00
2022-08-28T05:51:51.536Z,17.30
2022-08-28T05:54:19.532Z,20.00
2022-08-28T05:56:48.248Z,13.50
2022-08-28T05:59:17.172Z,18.10
2022-08-28T06:01:50.311Z,23.80
2022-08-28T06:04:26.307Z,17.60
2022-08-28T06:06:55.048Z,19.70
2022-08-28T06:09:29.632Z,16.50
2022-08-28T06:12:01.866Z,18.70
2022-08-28T06:14:31.899Z,18.30
2022-08-28T06:17:00.954Z,18.00
2022-08-28T06:19:31.952Z,18.00
2022-08-28T06:22:07.338Z,19.10
2022-08-28T06:24:35.980Z,17.30
2022-08-28T06:27:04.258Z,22.90
2022-08-28T06:29:32.072Z,15.90
2022-08-28T06:32:02.027Z,24.10
2022-08-28T06:34:30.405Z,16.80
2022-08-28T06:36:58.410Z,19.50
2022-08-28T06:39:26.453Z,20.60
2022-08-28T06:41:54.564Z,19.30
2022-08-28T06:44:24.511Z,19.40
2022-08-28T06:46:55.116Z,17.70
2022-08-28T06:49:23.471Z,15.10
2022-08-28T06:51:52.057Z,23.20
2022-08-28T06:54:23.264Z,18.40
2022-08-28T06:59:20.174Z,17.10
2022-08-28T07:01:48.139Z,22.60
2022-08-28T07:04:16.175Z,13.00
2022-08-28T07:06:53.650Z,29.40
2022-08-28T07:09:23.711Z,21.00
2022-08-28T07:11:52.352Z,20.00
2022-08-28T07:14:20.414Z,16.80
2022-08-28T07:16:48.511Z,12.00
2022-08-28T07:19:16.790Z,16.60
2022-08-28T07:21:47.131Z,17.80
2022-08-28T07:24:16.653Z,13.90
2022-08-28T07:26:46.131Z,18.60
2022-08-28T07:29:14.991Z,19.60
2022-08-28T07:31:47.292Z,19.20
2022-08-28T07:34:19.890Z,20.80
2022-08-28T07:36:48.971Z,17.00
2022-08-28T07:39:18.352Z,14.50
2022-08-28T07:41:48.479Z,17.30
2022-08-28T07:44:48.351Z,18.90
2022-08-28T07:47:27.770Z,14.30
2022-08-28T07:49:58.791Z,19.20
2022-08-28T07:52:30.103Z,12.90
2022-08-28T07:54:59.890Z,24.20
2022-08-28T07:57:28.700Z,17.80
2022-08-28T08:00:17.971Z,10.40
2022-08-28T08:02:46.643Z,16.80
2022-08-28T08:05:17.487Z,11.10
2022-08-28T08:07:46.151Z,21.30
2022-08-28T08:10:19.837Z,16.00
2022-08-28T08:12:49.426Z,16.50
2022-08-28T08:15:20.626Z,12.30
2022-08-28T08:17:49.056Z,16.80
2022-08-28T08:20:17.286Z,19.30
2022-08-28T08:22:45.313Z,17.80
2022-08-28T08:25:15.480Z,17.00
2022-08-28T08:27:44.414Z,19.60
2022-08-28T08:30:13.494Z,14.70
2022-08-28T08:32:41.434Z,18.90
2022-08-28T08:35:09.819Z,21.50
2022-08-28T08:37:38.087Z,16.70
2022-08-28T08:40:10.475Z,19.10
2022-08-28T08:42:39.754Z,18.70
2022-08-28T08:45:14.595Z,17.30
2022-08-28T08:47:48.177Z,15.00
2022-08-28T08:50:22.894Z,21.70
2022-08-28T08:52:56.855Z,14.90
2022-08-28T08:55:29.295Z,16.10
2022-08-28T08:58:12.093Z,19.60
2022-08-28T09:01:24.755Z,19.50
2022-08-28T09:04:21.678Z,16.90
2022-08-28T09:07:16.654Z,22.10
2022-08-28T09:09:52.975Z,18.90
2022-08-28T09:12:37.812Z,13.20
2022-08-28T09:15:10.495Z,13.20
2022-08-28T09:17:51.156Z,16.80
2022-08-28T09:20:30.191Z,17.80
2022-08-28T09:23:12.368Z,16.50
2022-08-28T09:26:15.061Z,18.20
2022-08-28T09:28:46.754Z,12.90
2022-08-28T09:31:20.805Z,12.40
2022-08-28T09:33:54.437Z,12.40
2022-08-28T09:36:28.116Z,17.80
2022-08-28T09:39:41.926Z,17.30
2022-08-28T09:42:33.221Z,17.80
2022-08-28T09:45:14.223Z,18.20
2022-08-28T09:47:57.726Z,8.80
2022-08-28T09:50:44.025Z,14.80
2022-08-28T09:53:12.310Z,10.90
2022-08-28T09:56:04.767Z,14.60
2022-08-28T09:58:45.235Z,14.40
2022-08-28T10:01:31.776Z,18.40
2022-08-28T10:04:14.555Z,10.10
2022-08-28T10:06:50.666Z,14.00
2022-08-28T10:09:37.230Z,11.10
2022-08-28T10:12:33.735Z,14.00
2022-08-28T10:15:15.227Z,12.90
2022-08-28T10:20:45.695Z,11.90
2022-08-28T10:23:36.178Z,9.70
2022-08-28T10:26:24.587Z,8.40
2022-08-28T10:29:25.305Z,14.60
2022-08-28T10:32:12.701Z,12.00
2022-08-28T10:35:06.578Z,17.90
2022-08-28T10:37:52.994Z,11.70
2022-08-28T10:40:35.569Z,13.70
2022-08-28T10:43:10.681Z,12.60
2022-08-28T10:45:39.746Z,15.90
2022-08-28T10:48:34.989Z,9.70
2022-08-28T10:51:35.419Z,12.20
2022-08-28T10:54:18.386Z,10.40
2022-08-28T10:57:10.611Z,9.20
2022-08-28T10:59:42.060Z,12.60
2022-08-28T11:02:14.465Z,10.50
2022-08-28T11:04:42.695Z,8.80
2022-08-28T11:07:20.855Z,11.20
2022-08-28T11:09:50.066Z,9.50
2022-08-28T11:12:17.955Z,13.20
2022-08-28T11:14:53.525Z,13.00
2022-08-28T11:17:30.856Z,11.20
2022-08-28T11:20:18.737Z,12.00
2022-08-28T11:23:00.518Z,12.50
2022-08-28T11:25:41.614Z,19.40
2022-08-28T11:28:18.741Z,14.30
2022-08-28T11:30:50.622Z,11.00
2022-08-28T11:33:52.757Z,13.10
2022-08-28T11:36:20.616Z,18.10
2022-08-28T11:38:51.535Z,18.60
2022-08-28T11:41:24.681Z,15.90
2022-08-28T11:43:52.995Z,16.50
2022-08-28T11:46:35.020Z,30.20
2022-08-28T11:49:05.958Z,28.60
2022-08-28T11:51:58.535Z,26.60
2022-08-28T11:54:32.674Z,25.30
2022-08-28T11:57:09.795Z,21.30
2022-08-28T12:00:05.145Z,20.10
2022-08-28T12:02:44.533Z,15.10
2022-08-28T12:05:15.336Z,14.70
2022-08-28T12:07:49.756Z,14.70
2022-08-28T12:10:23.975Z,14.70
2022-08-28T12:12:54.069Z,17.90
2022-08-28T12:15:27.795Z,13.70
2022-08-28T12:17:57.775Z,12.70
2022-08-28T12:20:25.614Z,17.80
2022-08-28T12:22:58.056Z,22.20
2022-08-28T12:25:38.456Z,26.70
2022-08-28T12:28:22.396Z,22.20
2022-08-28T12:31:07.646Z,28.10
2022-08-28T12:33:47.534Z,19.60
2022-08-28T12:36:17.855Z,31.70
2022-08-28T12:38:52.215Z,28.70
2022-08-28T12:41:22.235Z,33.30
2022-08-28T12:43:59.219Z,29.30
2022-08-28T12:46:31.887Z,27.00
2022-08-28T12:49:02.250Z,27.10
2022-08-28T12:51:35.925Z,26.70
2022-08-28T12:54:07.874Z,25.40
2022-08-28T12:56:38.454Z,34.40
2022-08-28T12:59:44.976Z,26.50
2022-08-28T13:02:28.535Z,35.00
2022-08-28T13:05:04.994Z,30.60
2022-08-28T13:07:46.935Z,45.60
2022-08-28T13:10:33.485Z,42.60
2022-08-28T13:13:11.584Z,51.30
2022-08-28T13:15:50.210Z,50.30
2022-08-28T13:18:44.343Z,54.70
2022-08-28T13:21:32.679Z,50.90
2022-08-28T13:24:21.992Z,58.50
2022-08-28T13:27:00.703Z,64.50
2022-08-28T13:29:29.632Z,58.30
2022-08-28T13:32:16.935Z,52.50
2022-08-28T13:35:26.175Z,58.90
2022-08-28T13:38:00.817Z,54.20
2022-08-28T13:40:56.860Z,57.30
2022-08-28T13:43:29.527Z,59.20
2022-08-28T13:45:58.414Z,51.80
2022-08-28T13:48:28.230Z,48.10
2022-08-28T13:51:10.690Z,51.80
2022-08-28T13:53:39.858Z,48.70
2022-08-28T13:56:07.918Z,44.80
2022-08-28T13:58:35.902Z,66.00
2022-08-28T14:01:05.159Z,46.20
2022-08-28T14:03:36.996Z,51.60
2022-08-28T14:06:18.876Z,40.00
2022-08-28T14:08:47.344Z,38.70
2022-08-28T14:11:16.295Z,50.50
2022-08-28T14:13:46.881Z,42.10
2022-08-28T14:16:25.552Z,47.10
2022-08-28T14:18:54.265Z,51.70
2022-08-28T14:21:24.872Z,50.50
2022-08-28T14:23:53.008Z,56.00
2022-08-28T14:26:21.084Z,55.60
2022-08-28T14:28:49.124Z,60.40
2022-08-28T14:31:17.731Z,63.90
2022-08-28T14:33:46.546Z,69.80
2022-08-28T14:36:16.924Z,67.30
2022-08-28T14:38:45.304Z,64.70
2022-08-28T14:41:15.255Z,66.10
2022-08-28T14:43:44.087Z,74.90
2022-08-28T14:46:24.863Z,71.20
2022-08-28T14:48:55.471Z,66.90
2022-08-28T14:51:25.210Z,69.20
2022-08-28T14:53:54.451Z,63.60
2022-08-28T14:56:22.990Z,60.30
2022-08-28T14:58:51.110Z,51.60
2022-08-28T15:01:39.505Z,49.90
2022-08-28T15:04:16.278Z,56.90
2022-08-28T15:06:45.131Z,51.80
2022-08-28T15:09:14.733Z,53.90
2022-08-28T15:11:43.990Z,47.70
2022-08-28T15:14:12.772Z,50.90
2022-08-28T15:16:44.604Z,39.50
2022-08-28T15:19:18.466Z,39.90
2022-08-28T15:21:56.011Z,36.60
2022-08-28T15:24:27.686Z,32.40
2022-08-28T15:26:57.050Z,34.80
2022-08-28T15:31:06.369Z,32.10
2022-08-28T15:33:35.170Z,32.30
2022-08-28T15:36:03.590Z,30.70
2022-08-28T15:38:56.906Z,30.00
2022-08-28T15:41:27.091Z,25.60
2022-08-28T15:43:57.457Z,31.80
2022-08-28T15:46:25.712Z,33.20
2022-08-28T15:48:54.558Z,31.10
2022-08-28T15:51:26.154Z,28.90
2022-08-28T15:53:54.641Z,27.60
2022-08-28T15:56:23.220Z,20.40
2022-08-28T15:58:52.576Z,15.00
2022-08-28T16:01:23.896Z,13.60
2022-08-28T16:03:52.319Z,13.90
2022-08-28T16:06:22.556Z,15.20
2022-08-28T16:08:51.258Z,10.90
2022-08-28T16:11:23.631Z,9.60
2022-08-28T16:13:52.850Z,9.10
2022-08-28T16:16:21.790Z,9.30
2022-08-28T16:18:50.492Z,14.90
2022-08-28T16:21:20.446Z,9.20
2022-08-28T16:23:51.591Z,10.30
2022-08-28T16:26:20.042Z,11.80
2022-08-28T16:28:48.110Z,9.60
2022-08-28T16:31:20.490Z,8.60
2022-08-28T16:33:50.310Z,8.00
2022-08-28T16:36:19.420Z,7.30
2022-08-28T16:38:52.863Z,12.70
2022-08-28T16:41:32.676Z,10.20
2022-08-28T16:44:01.970Z,9.40
2022-08-28T16:46:30.413Z,10.80
2022-08-28T16:49:00.247Z,11.40
2022-08-28T16:51:30.013Z,10.40
2022-08-28T16:53:58.552Z,10.60
2022-08-28T16:56:27.241Z,9.10
2022-08-28T16:58:57.510Z,10.20
2022-08-28T17:01:27.306Z,10.70
2022-08-28T17:03:57.053Z,8.90
2022-08-28T17:06:30.390Z,8.90
2022-08-28T17:08:59.411Z,7.20
2022-08-28T17:11:28.010Z,7.40
2022-08-28T17:13:56.734Z,7.00
2022-08-28T17:16:26.490Z,5.00
2022-08-28T17:18:54.835Z,8.90
2022-08-28T17:21:42.350Z,12.80
2022-08-28T17:24:15.451Z,10.00
2022-08-28T17:26:44.885Z,5.90
2022-08-28T17:29:13.126Z,7.60
2022-08-28T17:31:41.726Z,8.90
2022-08-28T17:34:12.070Z,13.10
2022-08-28T17:36:42.930Z,9.10
2022-08-28T17:39:14.850Z,4.20
2022-08-28T17:41:44.470Z,6.20
2022-08-28T17:44:15.595Z,5.80
2022-08-28T17:46:43.852Z,7.20
2022-08-28T17:49:11.791Z,6.60
2022-08-28T17:51:43.753Z,7.00
2022-08-28T17:54:14.595Z,9.00
2022-08-28T17:56:43.371Z,8.30
2022-08-28T17:59:12.952Z,6.60
2022-08-28T18:01:42.451Z,7.50
2022-08-28T18:04:11.448Z,7.60
2022-08-28T18:06:41.253Z,6.10
2022-08-28T18:09:11.075Z,6.60
2022-08-28T18:11:39.650Z,6.80
2022-08-28T18:14:09.710Z,6.20
2022-08-28T18:16:39.152Z,10.70
2022-08-28T18:19:10.172Z,6.40
2022-08-28T18:21:39.730Z,12.00
2022-08-28T18:24:09.293Z,9.30
2022-08-28T18:26:37.890Z,8.00
2022-08-28T18:29:07.074Z,12.60
2022-08-28T18:31:35.541Z,5.10
2022-08-28T18:34:04.370Z,6.80
2022-08-28T18:36:33.571Z,7.40
2022-08-28T18:39:01.910Z,11.60
2022-08-28T18:41:34.541Z,9.80
2022-08-28T18:44:15.909Z,9.60
2022-08-28T18:46:45.650Z,10.60
2022-08-28T18:49:14.490Z,8.20
2022-08-28T18:51:45.490Z,9.20
2022-08-28T18:54:16.411Z,8.40
2022-08-28T18:56:48.321Z,7.90
2022-08-28T18:59:19.190Z,8.00
2022-08-28T19:01:47.377Z,5.30
2022-08-28T19:04:15.650Z,6.70
2022-08-28T19:06:44.303Z,10.70
2022-08-28T19:09:19.389Z,6.70
2022-08-28T19:11:49.454Z,9.20
2022-08-28T19:14:17.840Z,6.30
2022-08-28T19:16:46.510Z,7.60
2022-08-28T19:19:15.290Z,8.10
2022-08-28T19:21:45.071Z,6.90
2022-08-28T19:24:16.971Z,6.80
2022-08-28T19:26:45.750Z,6.20
2022-08-28T19:29:14.955Z,7.40
2022-08-28T19:31:46.804Z,8.80
2022-08-28T19:36:43.126Z,10.00
2022-08-28T19:39:11.831Z,7.80
2022-08-28T19:41:40.262Z,13.20
2022-08-28T19:44:08.734Z,7.70
2022-08-28T19:46:38.644Z,12.80
2022-08-28T19:49:08.073Z,10.20
2022-08-28T19:51:37.922Z,10.50
2022-08-28T19:54:11.643Z,10.50
2022-08-28T19:56:40.782Z,12.00
2022-08-28T19:59:09.663Z,10.30
2022-08-28T20:04:30.161Z,7.00
2022-08-28T20:07:02.706Z,9.80
2022-08-28T20:09:31.021Z,12.80
2022-08-28T20:12:01.671Z,12.80
2022-08-28T20:14:32.323Z,12.00
2022-08-28T20:17:01.103Z,8.20
2022-08-28T20:19:29.443Z,11.50
2022-08-28T20:21:58.117Z,8.90
2022-08-28T20:24:26.902Z,7.00
2022-08-28T20:26:55.407Z,5.40
2022-08-28T20:29:24.891Z,7.80
2022-08-28T20:31:53.482Z,6.00
2022-08-28T20:34:22.270Z,9.60
2022-08-28T20:36:50.853Z,8.70
2022-08-28T20:39:20.271Z,6.10
2022-08-28T20:41:49.990Z,9.90
2022-08-28T20:44:20.642Z,10.20
2022-08-28T20:46:50.963Z,12.90
2022-08-28T20:49:22.602Z,7.50
2022-08-28T20:51:57.496Z,6.90
2022-08-28T20:54:39.422Z,7.20
2022-08-28T20:57:10.442Z,8.70
2022-08-28T20:59:41.102Z,10.50
2022-08-28T21:02:14.070Z,9.00
2022-08-28T21:04:43.932Z,14.40
2022-08-28T21:07:13.922Z,9.80
2022-08-28T21:10:05.478Z,16.00
2022-08-28T21:12:31.230Z,18.80
2022-08-28T21:15:00.403Z,17.50
2022-08-28T21:17:30.728Z,11.00
2022-08-28T21:20:06.710Z,11.00
2022-08-28T21:22:36.014Z,6.30
2022-08-28T21:25:07.950Z,6.50
2022-08-28T21:27:37.081Z,6.60
2022-08-28T21:30:07.402Z,8.40
2022-08-28T21:32:36.691Z,9.80
2022-08-28T21:35:08.060Z,10.50
2022-08-28T21:37:36.355Z,9.10
2022-08-28T21:40:06.975Z,11.00
2022-08-28T21:42:35.250Z,11.00
2022-08-28T21:45:08.380Z,16.60
2022-08-28T21:47:40.051Z,10.40
2022-08-28T21:50:08.985Z,6.60
2022-08-28T21:52:36.854Z,11.90
2022-08-28T21:55:09.828Z,17.40
2022-08-28T21:57:37.778Z,12.00
2022-08-28T22:00:18.717Z,10.30
2022-08-28T22:02:47.673Z,10.60
2022-08-28T22:05:16.145Z,7.30
2022-08-28T22:07:46.771Z,9.00
2022-08-28T22:10:15.407Z,6.90
2022-08-28T22:12:43.394Z,9.60
2022-08-28T22:15:11.561Z,5.60
2022-08-28T22:17:39.564Z,5.00
2022-08-28T22:20:08.338Z,5.30
2022-08-28T22:22:54.692Z,6.00
2022-08-28T22:25:22.906Z,7.40
2022-08-28T22:27:51.013Z,6.10
2022-08-28T22:30:20.450Z,5.90
2022-08-28T22:32:48.170Z,7.50
2022-08-28T22:35:16.218Z,5.70
2022-08-28T22:37:44.125Z,5.60
2022-08-28T22:40:13.825Z,9.60
2022-08-28T22:42:43.051Z,7.20
2022-08-28T22:45:11.145Z,6.80
2022-08-28T22:47:40.158Z,7.70
2022-08-28T22:50:08.955Z,4.80
2022-08-28T22:52:37.799Z,10.00
2022-08-28T22:55:12.785Z,6.00
2022-08-28T22:57:41.138Z,7.50
2022-08-28T23:00:12.582Z,8.80
2022-08-28T23:02:42.319Z,4.30
2022-08-28T23:05:10.477Z,7.00
2022-08-28T23:07:39.325Z,7.00
2022-08-28T23:10:08.026Z,6.00
2022-08-28T23:12:36.380Z,7.30
2022-08-28T23:15:07.707Z,7.70
2022-08-28T23:17:35.701Z,8.00
2022-08-28T23:20:08.248Z,6.40
2022-08-28T23:22:38.895Z,12.30
2022-08-28T23:25:08.319Z,6.50
2022-08-28T23:27:36.881Z,5.40
2022-08-28T23:30:07.417Z,8.70
2022-08-28T23:32:35.534Z,7.00
2022-08-28T23:35:07.275Z,10.00
2022-08-28T23:37:35.690Z,11.00
2022-08-28T23:40:08.940Z,9.10
2022-08-28T23:42:37.710Z,12.40
2022-08-28T23:45:07.044Z,12.40
2022-08-28T23:47:35.042Z,9.10
2022-08-28T23:50:12.704Z,13.20
2022-08-28T23:52:40.828Z,11.40
2022-08-28T23:55:12.508Z,12.70
2022-08-28T23:57:40.334Z,10.00
